sensor_id;sensor_type;location;lat;lon;timestamp;P1;P2;P0
56360;PMS7003;42611;51.132;13.588;2022-12-29T00:03:02;0.7;0.7;
56360;PMS7003;42611;51.132;13.588;2022-12-29T00:08:06;0.8;0.8;
56360;PMS7003;42611;51.132;13.588;2022-12-29T00:13:06;0.7;0.7;
56360;PMS7003;42611;51.132;13.588;2022-12-29T00:18:01;0.8;0.8;
56360;PMS7003;42611;51.132;13.588;2022-12-29T00:23:03;1.0;1.0;
56360;PMS7003;42611;51.132;13.588;2022-12-29T00:28:08;0.9;0.9;
56360;PMS7003;42611;51.132;13.588;2022-12-29T00:33:13;0.8;0.8;
56360;PMS7003;42611;51.132;13.588;2022-12-29T00:38:02;1.1;0.9;
56360;PMS7003;42611;51.132;13.588;2022-12-29T00:53:01;1.2;0.9;
56360;PMS7003;42611;51.132;13.588;2022-12-29T00:58:02;1.6;0.9;
56360;PMS7003;42611;51.132;13.588;2022-12-29T01:03:03;1.4;0.9;
56360;PMS7003;42611;51.132;13.588;2022-12-29T01:08:03;1.6;1.0;
56360;PMS7003;42611;51.132;13.588;2022-12-29T01:13:02;1.4;1.0;
56360;PMS7003;42611;51.132;13.588;2022-12-29T01:18:01;1.2;0.8;
56360;PMS7003;42611;51.132;13.588;2022-12-29T01:23:06;0.8;0.8;
56360;PMS7003;42611;51.132;13.588;2022-12-29T01:28:02;0.7;0.6;
56360;PMS7003;42611;51.132;13.588;2022-12-29T01:38:01;0.8;0.7;
56360;PMS7003;42611;51.132;13.588;2022-12-29T01:43:01;0.9;0.9;
56360;PMS7003;42611;51.132;13.588;2022-12-29T01:48:01;1.0;1.0;
56360;PMS7003;42611;51.132;13.588;2022-12-29T01:53:08;1.1;1.1;
56360;PMS7003;42611;51.132;13.588;2022-12-29T01:58:08;0.7;0.7;
56360;PMS7003;42611;51.132;13.588;2022-12-29T02:03:02;1.1;1.1;
56360;PMS7003;42611;51.132;13.588;2022-12-29T02:08:06;1.2;1.2;
56360;PMS7003;42611;51.132;13.588;2022-12-29T02:13:14;1.5;1.5;
56360;PMS7003;42611;51.132;13.588;2022-12-29T02:23:08;2.0;2.0;
56360;PMS7003;42611;51.132;13.588;2022-12-29T02:28:09;2.1;2.0;
56360;PMS7003;42611;51.132;13.588;2022-12-29T02:33:07;1.9;1.8;
56360;PMS7003;42611;51.132;13.588;2022-12-29T02:38:05;2.0;2.0;
56360;PMS7003;42611;51.132;13.588;2022-12-29T02:43:04;2.1;2.1;
56360;PMS7003;42611;51.132;13.588;2022-12-29T02:48:04;2.0;1.9;
56360;PMS7003;42611;51.132;13.588;2022-12-29T02:53:08;1.9;1.7;
56360;PMS7003;42611;51.132;13.588;2022-12-29T02:58:17;2.5;2.0;
56360;PMS7003;42611;51.132;13.588;2022-12-29T03:03:08;2.4;1.7;
56360;PMS7003;42611;51.132;13.588;2022-12-29T03:13:12;2.3;1.6;
56360;PMS7003;42611;51.132;13.588;2022-12-29T03:18:06;2.2;1.7;
56360;PMS7003;42611;51.132;13.588;2022-12-29T03:23:01;1.9;1.6;
56360;PMS7003;42611;51.132;13.588;2022-12-29T03:28:03;1.6;1.5;
56360;PMS7003;42611;51.132;13.588;2022-12-29T03:33:02;1.5;1.4;
56360;PMS7003;42611;51.132;13.588;2022-12-29T03:38:05;1.2;1.2;
56360;PMS7003;42611;51.132;13.588;2022-12-29T03:48:01;1.5;1.3;
56360;PMS7003;42611;51.132;13.588;2022-12-29T03:54:01;1.8;1.6;
56360;PMS7003;42611;51.132;13.588;2022-12-29T04:04:01;2.1;1.9;
56360;PMS7003;42611;51.132;13.588;2022-12-29T04:09:01;2.0;1.8;
56360;PMS7003;42611;51.132;13.588;2022-12-29T04:14:02;1.4;1.4;
56360;PMS7003;42611;51.132;13.588;2022-12-29T04:19:01;1.0;1.0;
56360;PMS7003;42611;51.132;13.588;2022-12-29T04:29:01;0.9;0.6;
56360;PMS7003;42611;51.132;13.588;2022-12-29T04:34:01;0.7;0.4;
56360;PMS7003;42611;51.132;13.588;2022-12-29T04:39:01;0.5;0.2;
56360;PMS7003;42611;51.132;13.588;2022-12-29T04:44:09;0.6;0.4;
56360;PMS7003;42611;51.132;13.588;2022-12-29T04:49:02;0.4;0.2;
56360;PMS7003;42611;51.132;13.588;2022-12-29T04:54:01;0.2;0.2;
56360;PMS7003;42611;51.132;13.588;2022-12-29T05:04:01;0.3;0.3;
56360;PMS7003;42611;51.132;13.588;2022-12-29T05:19:01;1.2;0.6;
56360;PMS7003;42611;51.132;13.588;2022-12-29T05:24:01;1.7;1.0;
56360;PMS7003;42611;51.132;13.588;2022-12-29T05:29:06;1.9;0.9;
56360;PMS7003;42611;51.132;13.588;2022-12-29T05:34:02;2.0;1.3;
56360;PMS7003;42611;51.132;13.588;2022-12-29T05:39:06;2.8;1.8;
56360;PMS7003;42611;51.132;13.588;2022-12-29T05:44:02;2.0;1.3;
56360;PMS7003;42611;51.132;13.588;2022-12-29T05:49:01;1.8;1.2;
56360;PMS7003;42611;51.132;13.588;2022-12-29T05:59:07;1.9;1.5;
56360;PMS7003;42611;51.132;13.588;2022-12-29T06:04:03;1.3;1.2;
56360;PMS7003;42611;51.132;13.588;2022-12-29T06:09:06;1.4;1.3;
56360;PMS7003;42611;51.132;13.588;2022-12-29T06:14:01;1.3;1.1;
56360;PMS7003;42611;51.132;13.588;2022-12-29T06:19:01;1.1;0.8;
56360;PMS7003;42611;51.132;13.588;2022-12-29T06:24:01;0.9;0.7;
56360;PMS7003;42611;51.132;13.588;2022-12-29T06:29:01;1.3;0.7;
56360;PMS7003;42611;51.132;13.588;2022-12-29T06:34:12;1.4;0.8;
56360;PMS7003;42611;51.132;13.588;2022-12-29T06:39:06;1.7;1.3;
56360;PMS7003;42611;51.132;13.588;2022-12-29T06:44:06;1.9;1.5;
56360;PMS7003;42611;51.132;13.588;2022-12-29T06:49:01;1.6;1.2;
56360;PMS7003;42611;51.132;13.588;2022-12-29T06:54:06;1.2;1.2;
56360;PMS7003;42611;51.132;13.588;2022-12-29T06:59:01;0.8;0.8;
56360;PMS7003;42611;51.132;13.588;2022-12-29T07:04:02;0.5;0.5;
56360;PMS7003;42611;51.132;13.588;2022-12-29T07:14:05;0.9;0.6;
56360;PMS7003;42611;51.132;13.588;2022-12-29T07:19:01;1.2;0.7;
56360;PMS7003;42611;51.132;13.588;2022-12-29T07:24:01;1.4;0.9;
56360;PMS7003;42611;51.132;13.588;2022-12-29T07:29:03;1.7;1.2;
56360;PMS7003;42611;51.132;13.588;2022-12-29T07:34:07;1.8;1.3;
56360;PMS7003;42611;51.132;13.588;2022-12-29T07:39:02;1.6;1.4;
56360;PMS7003;42611;51.132;13.588;2022-12-29T07:44:08;1.7;1.4;
56360;PMS7003;42611;51.132;13.588;2022-12-29T07:49:01;1.8;1.4;
56360;PMS7003;42611;51.132;13.588;2022-12-29T07:54:01;1.3;0.9;
56360;PMS7003;42611;51.132;13.588;2022-12-29T07:59:02;1.5;0.8;
56360;PMS7003;42611;51.132;13.588;2022-12-29T08:04:01;1.6;0.9;
56360;PMS7003;42611;51.132;13.588;2022-12-29T08:09:25;1.3;0.9;
56360;PMS7003;42611;51.132;13.588;2022-12-29T08:19:01;1.4;0.9;
56360;PMS7003;42611;51.132;13.588;2022-12-29T08:24:01;1.0;0.9;
56360;PMS7003;42611;51.132;13.588;2022-12-29T08:29:02;0.9;0.8;
56360;PMS7003;42611;51.132;13.588;2022-12-29T08:34:06;1.3;0.9;
56360;PMS7003;42611;51.132;13.588;2022-12-29T08:39:01;1.2;0.9;
56360;PMS7003;42611;51.132;13.588;2022-12-29T08:49:01;1.6;1.3;
56360;PMS7003;42611;51.132;13.588;2022-12-29T08:54:01;1.8;1.5;
56360;PMS7003;42611;51.132;13.588;2022-12-29T08:59:01;2.0;1.6;
56360;PMS7003;42611;51.132;13.588;2022-12-29T09:04:16;2.2;1.8;
56360;PMS7003;42611;51.132;13.588;2022-12-29T09:09:01;2.5;2.1;
56360;PMS7003;42611;51.132;13.588;2022-12-29T09:14:02;2.2;1.8;
56360;PMS7003;42611;51.132;13.588;2022-12-29T09:19:01;2.6;1.8;
56360;PMS7003;42611;51.132;13.588;2022-12-29T09:24:01;2.2;1.8;
56360;PMS7003;42611;51.132;13.588;2022-12-29T09:29:01;2.6;1.8;
56360;PMS7003;42611;51.132;13.588;2022-12-29T09:34:06;2.8;2.0;
56360;PMS7003;42611;51.132;13.588;2022-12-29T09:44:03;2.4;1.8;
56360;PMS7003;42611;51.132;13.588;2022-12-29T09:49:28;2.6;1.8;
56360;PMS7003;42611;51.132;13.588;2022-12-29T09:54:27;2.0;1.6;
56360;PMS7003;42611;51.132;13.588;2022-12-29T09:59:04;2.2;1.6;
56360;PMS7003;42611;51.132;13.588;2022-12-29T10:04:02;2.4;1.8;
56360;PMS7003;42611;51.132;13.588;2022-12-29T10:14:43;2.0;1.6;
56360;PMS7003;42611;51.132;13.588;2022-12-29T10:19:15;2.2;1.5;
56360;PMS7003;42611;51.132;13.588;2022-12-29T10:24:04;1.8;1.3;
56360;PMS7003;42611;51.132;13.588;2022-12-29T10:29:11;1.7;1.2;
56360;PMS7003;42611;51.132;13.588;2022-12-29T10:34:10;1.5;1.2;
56360;PMS7003;42611;51.132;13.588;2022-12-29T10:39:36;1.6;1.3;
56360;PMS7003;42611;51.132;13.588;2022-12-29T10:49:14;1.4;1.3;
56360;PMS7003;42611;51.132;13.588;2022-12-29T10:54:09;1.2;1.0;
56360;PMS7003;42611;51.132;13.588;2022-12-29T10:59:16;1.6;1.2;
56360;PMS7003;42611;51.132;13.588;2022-12-29T11:04:36;1.2;0.9;
56360;PMS7003;42611;51.132;13.588;2022-12-29T11:09:02;0.8;0.6;
56360;PMS7003;42611;51.132;13.588;2022-12-29T11:24:03;0.7;0.4;
56360;PMS7003;42611;51.132;13.588;2022-12-29T11:29:24;0.8;0.5;
56360;PMS7003;42611;51.132;13.588;2022-12-29T11:34:07;1.0;0.7;
56360;PMS7003;42611;51.132;13.588;2022-12-29T11:39:31;1.1;0.9;
56360;PMS7003;42611;51.132;13.588;2022-12-29T11:44:02;1.5;1.3;
56360;PMS7003;42611;51.132;13.588;2022-12-29T11:49:06;1.2;1.1;
56360;PMS7003;42611;51.132;13.588;2022-12-29T11:54:02;1.3;1.2;
56360;PMS7003;42611;51.132;13.588;2022-12-29T11:59:35;1.4;1.3;
56360;PMS7003;42611;51.132;13.588;2022-12-29T12:09:03;1.2;1.1;
56360;PMS7003;42611;51.132;13.588;2022-12-29T12:14:04;1.1;1.1;
56360;PMS7003;42611;51.132;13.588;2022-12-29T12:19:11;1.0;1.0;
56360;PMS7003;42611;51.132;13.588;2022-12-29T12:34:02;1.2;1.0;
56360;PMS7003;42611;51.132;13.588;2022-12-29T12:39:11;1.4;1.0;
56360;PMS7003;42611;51.132;13.588;2022-12-29T12:44:04;1.3;1.0;
56360;PMS7003;42611;51.132;13.588;2022-12-29T12:49:05;1.4;1.2;
56360;PMS7003;42611;51.132;13.588;2022-12-29T12:54:05;1.2;1.0;
56360;PMS7003;42611;51.132;13.588;2022-12-29T12:59:53;0.8;0.6;
56360;PMS7003;42611;51.132;13.588;2022-12-29T13:09:10;1.4;1.4;
56360;PMS7003;42611;51.132;13.588;2022-12-29T13:19:05;1.8;1.8;
56360;PMS7003;42611;51.132;13.588;2022-12-29T13:24:12;2.0;2.0;
56360;PMS7003;42611;51.132;13.588;2022-12-29T13:29:18;2.1;2.1;
56360;PMS7003;42611;51.132;13.588;2022-12-29T13:34:05;1.7;1.7;
56360;PMS7003;42611;51.132;13.588;2022-12-29T13:49:02;1.8;1.8;
56360;PMS7003;42611;51.132;13.588;2022-12-29T13:54:14;1.7;1.7;
56360;PMS7003;42611;51.132;13.588;2022-12-29T14:04:03;1.5;1.5;
56360;PMS7003;42611;51.132;13.588;2022-12-29T14:09:26;1.6;1.5;
56360;PMS7003;42611;51.132;13.588;2022-12-29T14:15:21;1.5;1.3;
56360;PMS7003;42611;51.132;13.588;2022-12-29T14:19:12;1.8;1.6;
56360;PMS7003;42611;51.132;13.588;2022-12-29T14:24:40;2.1;2.0;
56360;PMS7003;42611;51.132;13.588;2022-12-29T14:29:15;2.6;2.4;
56360;PMS7003;42611;51.132;13.588;2022-12-29T14:34:29;2.4;2.3;
56360;PMS7003;42611;51.132;13.588;2022-12-29T14:39:39;3.0;2.7;
56360;PMS7003;42611;51.132;13.588;2022-12-29T14:44:21;3.2;2.9;
56360;PMS7003;42611;51.132;13.588;2022-12-29T14:49:02;3.4;2.8;
56360;PMS7003;42611;51.132;13.588;2022-12-29T14:54:05;2.9;2.4;
56360;PMS7003;42611;51.132;13.588;2022-12-29T14:59:01;3.0;2.4;
56360;PMS7003;42611;51.132;13.588;2022-12-29T15:04:06;2.5;2.2;
56360;PMS7003;42611;51.132;13.588;2022-12-29T15:09:04;2.1;1.8;
56360;PMS7003;42611;51.132;13.588;2022-12-29T15:14:48;1.9;1.7;
56360;PMS7003;42611;51.132;13.588;2022-12-29T15:19:20;1.8;1.6;
56360;PMS7003;42611;51.132;13.588;2022-12-29T15:24:02;1.7;1.5;
56360;PMS7003;42611;51.132;13.588;2022-12-29T15:34:11;2.0;1.8;
56360;PMS7003;42611;51.132;13.588;2022-12-29T15:45:12;2.6;2.1;
56360;PMS7003;42611;51.132;13.588;2022-12-29T15:49:04;2.8;2.3;
56360;PMS7003;42611;51.132;13.588;2022-12-29T15:59:46;2.3;1.5;
56360;PMS7003;42611;51.132;13.588;2022-12-29T16:04:06;2.1;1.5;
56360;PMS7003;42611;51.132;13.588;2022-12-29T16:09:04;1.6;1.3;
56360;PMS7003;42611;51.132;13.588;2022-12-29T16:19:03;1.2;1.2;
56360;PMS7003;42611;51.132;13.588;2022-12-29T16:24:02;1.4;1.2;
56360;PMS7003;42611;51.132;13.588;2022-12-29T16:44:18;1.3;1.1;
56360;PMS7003;42611;51.132;13.588;2022-12-29T16:49:01;1.1;1.1;
56360;PMS7003;42611;51.132;13.588;2022-12-29T16:54:01;1.2;0.8;
56360;PMS7003;42611;51.132;13.588;2022-12-29T16:59:14;1.0;0.6;
56360;PMS7003;42611;51.132;13.588;2022-12-29T17:09:19;0.8;0.4;
56360;PMS7003;42611;51.132;13.588;2022-12-29T17:14:02;0.9;0.5;
56360;PMS7003;42611;51.132;13.588;2022-12-29T17:19:01;0.5;0.5;
56360;PMS7003;42611;51.132;13.588;2022-12-29T17:25:01;0.6;0.6;
56360;PMS7003;42611;51.132;13.588;2022-12-29T17:30:17;0.8;0.8;
56360;PMS7003;42611;51.132;13.588;2022-12-29T17:35:01;1.0;1.0;
56360;PMS7003;42611;51.132;13.588;2022-12-29T17:40:02;1.1;1.0;
56360;PMS7003;42611;51.132;13.588;2022-12-29T17:45:14;1.5;1.4;
56360;PMS7003;42611;51.132;13.588;2022-12-29T17:50:03;2.5;2.4;
56360;PMS7003;42611;51.132;13.588;2022-12-29T17:55:01;2.9;2.8;
56360;PMS7003;42611;51.132;13.588;2022-12-29T18:00:03;3.0;2.8;
56360;PMS7003;42611;51.132;13.588;2022-12-29T18:10:02;3.2;2.6;
56360;PMS7003;42611;51.132;13.588;2022-12-29T18:15:02;2.5;2.0;
56360;PMS7003;42611;51.132;13.588;2022-12-29T18:25:01;2.4;1.6;
56360;PMS7003;42611;51.132;13.588;2022-12-29T18:30:09;2.2;1.5;
56360;PMS7003;42611;51.132;13.588;2022-12-29T18:35:01;1.6;1.2;
56360;PMS7003;42611;51.132;13.588;2022-12-29T18:40:07;1.3;1.0;
56360;PMS7003;42611;51.132;13.588;2022-12-29T18:45:18;1.1;0.9;
56360;PMS7003;42611;51.132;13.588;2022-12-29T18:51:02;1.5;1.5;
56360;PMS7003;42611;51.132;13.588;2022-12-29T18:56:01;2.1;2.0;
56360;PMS7003;42611;51.132;13.588;2022-12-29T19:06:07;2.7;2.2;
56360;PMS7003;42611;51.132;13.588;2022-12-29T19:11:01;2.6;2.2;
56360;PMS7003;42611;51.132;13.588;2022-12-29T19:16:01;2.4;1.9;
56360;PMS7003;42611;51.132;13.588;2022-12-29T19:21:01;2.3;1.6;
56360;PMS7003;42611;51.132;13.588;2022-12-29T19:26:08;2.9;2.3;
56360;PMS7003;42611;51.132;13.588;2022-12-29T19:31:03;4.2;3.3;
56360;PMS7003;42611;51.132;13.588;2022-12-29T19:36:01;4.7;3.8;
56360;PMS7003;42611;51.132;13.588;2022-12-29T19:41:05;5.1;4.1;
56360;PMS7003;42611;51.132;13.588;2022-12-29T19:46:05;5.0;4.3;
56360;PMS7003;42611;51.132;13.588;2022-12-29T19:51:07;5.3;4.0;
56360;PMS7003;42611;51.132;13.588;2022-12-29T19:56:02;3.8;3.2;
56360;PMS7003;42611;51.132;13.588;2022-12-29T20:01:03;3.1;2.4;
56360;PMS7003;42611;51.132;13.588;2022-12-29T20:06:07;2.6;2.1;
56360;PMS7003;42611;51.132;13.588;2022-12-29T20:16:03;3.6;3.4;
56360;PMS7003;42611;51.132;13.588;2022-12-29T20:21:02;5.2;4.9;
56360;PMS7003;42611;51.132;13.588;2022-12-29T20:26:04;7.2;6.6;
56360;PMS7003;42611;51.132;13.588;2022-12-29T20:31:07;7.4;6.8;
56360;PMS7003;42611;51.132;13.588;2022-12-29T20:36:08;7.3;6.6;
56360;PMS7003;42611;51.132;13.588;2022-12-29T20:41:07;5.5;5.1;
56360;PMS7003;42611;51.132;13.588;2022-12-29T20:46:06;3.4;3.1;
56360;PMS7003;42611;51.132;13.588;2022-12-29T20:51:02;1.6;1.5;
56360;PMS7003;42611;51.132;13.588;2022-12-29T20:56:04;1.2;1.1;
56360;PMS7003;42611;51.132;13.588;2022-12-29T21:06:02;0.8;0.7;
56360;PMS7003;42611;51.132;13.588;2022-12-29T21:16:04;0.5;0.5;
56360;PMS7003;42611;51.132;13.588;2022-12-29T21:21:03;0.4;0.4;
56360;PMS7003;42611;51.132;13.588;2022-12-29T21:36:07;0.3;0.2;
56360;PMS7003;42611;51.132;13.588;2022-12-29T21:41:07;0.8;0.4;
56360;PMS7003;42611;51.132;13.588;2022-12-29T21:51:06;1.1;0.6;
56360;PMS7003;42611;51.132;13.588;2022-12-29T22:06:01;0.9;0.6;
56360;PMS7003;42611;51.132;13.588;2022-12-29T22:11:04;1.2;0.9;
56360;PMS7003;42611;51.132;13.588;2022-12-29T22:21:08;1.4;0.8;
56360;PMS7003;42611;51.132;13.588;2022-12-29T22:26:02;1.2;0.6;
56360;PMS7003;42611;51.132;13.588;2022-12-29T22:37:01;1.0;0.4;
56360;PMS7003;42611;51.132;13.588;2022-12-29T22:42:01;0.7;0.4;
56360;PMS7003;42611;51.132;13.588;2022-12-29T22:47:01;0.8;0.7;
56360;PMS7003;42611;51.132;13.588;2022-12-29T22:52:01;0.9;0.7;
56360;PMS7003;42611;51.132;13.588;2022-12-29T22:57:01;0.6;0.5;
56360;PMS7003;42611;51.132;13.588;2022-12-29T23:07:02;1.0;0.4;
56360;PMS7003;42611;51.132;13.588;2022-12-29T23:12:01;0.7;0.1;
56360;PMS7003;42611;51.132;13.588;2022-12-29T23:17:02;0.6;0.1;
56360;PMS7003;42611;51.132;13.588;2022-12-29T23:27:06;0.9;0.1;
56360;PMS7003;42611;51.132;13.588;2022-12-29T23:32:01;0.5;0.2;
56360;PMS7003;42611;51.132;13.588;2022-12-29T23:37:01;0.4;0.1;
56360;PMS7003;42611;51.132;13.588;2022-12-29T23:47:01;0.6;0.1;
56360;PMS7003;42611;51.132;13.588;2022-12-29T23:52:01;0.4;0.2;
56360;PMS7003;42611;51.132;13.588;2022-12-29T23:57:01;0.3;0.1;
